sensor_id;sensor_type;location;lat;lon;timestamp;temperature;humidity
52919;DHT22;38793;52.690;6.812;2022-07-29T00:00:01;15.90;95.60
52919;DHT22;38793;52.690;6.812;2022-07-29T00:02:27;16.00;95.70
52919;DHT22;38793;52.690;6.812;2022-07-29T00:04:53;15.90;95.70
52919;DHT22;38793;52.690;6.812;2022-07-29T00:07:19;15.90;95.80
52919;DHT22;38793;52.690;6.812;2022-07-29T00:09:45;15.90;95.80
52919;DHT22;38793;52.690;6.812;2022-07-29T00:12:10;15.90;95.80
52919;DHT22;38793;52.690;6.812;2022-07-29T00:14:36;15.90;95.90
52919;DHT22;38793;52.690;6.812;2022-07-29T00:17:01;15.90;95.80
52919;DHT22;38793;52.690;6.812;2022-07-29T00:19:27;15.80;95.80
52919;DHT22;38793;52.690;6.812;2022-07-29T00:21:53;15.80;95.90
52919;DHT22;38793;52.690;6.812;2022-07-29T00:24:18;15.80;95.80
52919;DHT22;38793;52.690;6.812;2022-07-29T00:26:44;15.80;95.80
52919;DHT22;38793;52.690;6.812;2022-07-29T00:29:09;15.80;95.70
52919;DHT22;38793;52.690;6.812;2022-07-29T00:31:35;15.80;95.70
52919;DHT22;38793;52.690;6.812;2022-07-29T00:34:01;15.80;95.80
52919;DHT22;38793;52.690;6.812;2022-07-29T00:36:27;15.80;95.70
52919;DHT22;38793;52.690;6.812;2022-07-29T00:38:53;15.80;95.70
52919;DHT22;38793;52.690;6.812;2022-07-29T00:41:19;15.80;95.60
52919;DHT22;38793;52.690;6.812;2022-07-29T00:43:45;15.80;95.60
52919;DHT22;38793;52.690;6.812;2022-07-29T00:46:11;15.70;95.50
52919;DHT22;38793;52.690;6.812;2022-07-29T00:48:37;15.70;95.50
52919;DHT22;38793;52.690;6.812;2022-07-29T00:51:05;15.70;95.70
52919;DHT22;38793;52.690;6.812;2022-07-29T00:53:31;15.70;95.60
52919;DHT22;38793;52.690;6.812;2022-07-29T00:55:57;15.70;95.50
52919;DHT22;38793;52.690;6.812;2022-07-29T00:58:24;15.70;95.70
52919;DHT22;38793;52.690;6.812;2022-07-29T01:00:49;15.70;95.50
52919;DHT22;38793;52.690;6.812;2022-07-29T01:03:15;15.70;95.60
52919;DHT22;38793;52.690;6.812;2022-07-29T01:05:42;15.70;95.40
52919;DHT22;38793;52.690;6.812;2022-07-29T01:08:12;15.70;95.40
52919;DHT22;38793;52.690;6.812;2022-07-29T01:10:39;15.60;95.40
52919;DHT22;38793;52.690;6.812;2022-07-29T01:13:06;15.70;95.50
52919;DHT22;38793;52.690;6.812;2022-07-29T01:15:34;15.60;95.60
52919;DHT22;38793;52.690;6.812;2022-07-29T01:18:08;15.60;95.60
52919;DHT22;38793;52.690;6.812;2022-07-29T01:23:59;15.60;95.70
52919;DHT22;38793;52.690;6.812;2022-07-29T01:26:40;15.60;95.80
52919;DHT22;38793;52.690;6.812;2022-07-29T01:29:25;15.60;95.70
52919;DHT22;38793;52.690;6.812;2022-07-29T01:37:37;15.60;96.00
52919;DHT22;38793;52.690;6.812;2022-07-29T01:40:05;15.60;96.00
52919;DHT22;38793;52.690;6.812;2022-07-29T01:42:42;15.60;96.00
52919;DHT22;38793;52.690;6.812;2022-07-29T01:45:30;15.50;96.10
52919;DHT22;38793;52.690;6.812;2022-07-29T01:48:05;15.50;96.20
52919;DHT22;38793;52.690;6.812;2022-07-29T01:50:39;15.50;96.20
52919;DHT22;38793;52.690;6.812;2022-07-29T01:53:08;15.50;96.30
52919;DHT22;38793;52.690;6.812;2022-07-29T01:55:38;15.50;96.30
52919;DHT22;38793;52.690;6.812;2022-07-29T01:58:06;15.40;96.30
52919;DHT22;38793;52.690;6.812;2022-07-29T02:00:33;15.40;96.40
52919;DHT22;38793;52.690;6.812;2022-07-29T02:03:02;15.40;96.50
52919;DHT22;38793;52.690;6.812;2022-07-29T02:05:30;15.40;96.50
52919;DHT22;38793;52.690;6.812;2022-07-29T02:07:58;15.40;96.60
52919;DHT22;38793;52.690;6.812;2022-07-29T02:10:27;15.40;96.50
52919;DHT22;38793;52.690;6.812;2022-07-29T02:12:56;15.40;96.50
52919;DHT22;38793;52.690;6.812;2022-07-29T02:15:24;15.40;96.60
52919;DHT22;38793;52.690;6.812;2022-07-29T02:17:55;15.40;96.60
52919;DHT22;38793;52.690;6.812;2022-07-29T02:20:23;15.40;96.60
52919;DHT22;38793;52.690;6.812;2022-07-29T02:22:51;15.40;96.70
52919;DHT22;38793;52.690;6.812;2022-07-29T02:25:18;15.40;96.60
52919;DHT22;38793;52.690;6.812;2022-07-29T02:27:44;15.40;96.70
52919;DHT22;38793;52.690;6.812;2022-07-29T02:30:11;15.40;96.70
52919;DHT22;38793;52.690;6.812;2022-07-29T02:32:40;15.40;96.80
52919;DHT22;38793;52.690;6.812;2022-07-29T02:35:08;15.40;97.00
52919;DHT22;38793;52.690;6.812;2022-07-29T02:37:36;15.30;96.90
52919;DHT22;38793;52.690;6.812;2022-07-29T02:40:03;15.30;96.90
52919;DHT22;38793;52.690;6.812;2022-07-29T02:42:31;15.30;96.90
52919;DHT22;38793;52.690;6.812;2022-07-29T02:44:57;15.30;97.00
52919;DHT22;38793;52.690;6.812;2022-07-29T02:47:55;15.30;97.10
52919;DHT22;38793;52.690;6.812;2022-07-29T02:50:31;15.30;97.40
52919;DHT22;38793;52.690;6.812;2022-07-29T02:53:02;15.30;97.20
52919;DHT22;38793;52.690;6.812;2022-07-29T02:55:40;15.30;97.30
52919;DHT22;38793;52.690;6.812;2022-07-29T02:58:15;15.30;97.30
52919;DHT22;38793;52.690;6.812;2022-07-29T03:00:46;15.30;97.40
52919;DHT22;38793;52.690;6.812;2022-07-29T03:03:14;15.30;97.40
52919;DHT22;38793;52.690;6.812;2022-07-29T03:05:41;15.30;97.30
52919;DHT22;38793;52.690;6.812;2022-07-29T03:08:09;15.30;97.60
52919;DHT22;38793;52.690;6.812;2022-07-29T03:10:37;15.30;97.40
52919;DHT22;38793;52.690;6.812;2022-07-29T03:13:05;15.30;97.50
52919;DHT22;38793;52.690;6.812;2022-07-29T03:15:31;15.30;97.40
52919;DHT22;38793;52.690;6.812;2022-07-29T03:17:58;15.30;97.50
52919;DHT22;38793;52.690;6.812;2022-07-29T03:20:26;15.20;97.50
52919;DHT22;38793;52.690;6.812;2022-07-29T03:22:52;15.20;97.50
52919;DHT22;38793;52.690;6.812;2022-07-29T03:25:18;15.20;97.50
52919;DHT22;38793;52.690;6.812;2022-07-29T03:27:44;15.20;97.50
52919;DHT22;38793;52.690;6.812;2022-07-29T03:30:11;15.20;97.60
52919;DHT22;38793;52.690;6.812;2022-07-29T03:32:37;15.20;97.60
52919;DHT22;38793;52.690;6.812;2022-07-29T03:35:04;15.20;97.60
52919;DHT22;38793;52.690;6.812;2022-07-29T03:37:30;15.20;97.60
52919;DHT22;38793;52.690;6.812;2022-07-29T03:39:57;15.20;97.70
52919;DHT22;38793;52.690;6.812;2022-07-29T03:42:29;15.20;97.70
52919;DHT22;38793;52.690;6.812;2022-07-29T03:44:57;15.20;97.80
52919;DHT22;38793;52.690;6.812;2022-07-29T03:47:26;15.20;97.80
52919;DHT22;38793;52.690;6.812;2022-07-29T03:50:00;15.10;97.90
52919;DHT22;38793;52.690;6.812;2022-07-29T03:52:27;15.10;97.90
52919;DHT22;38793;52.690;6.812;2022-07-29T03:54:53;15.10;97.90
52919;DHT22;38793;52.690;6.812;2022-07-29T03:57:20;15.10;98.30
52919;DHT22;38793;52.690;6.812;2022-07-29T03:59:49;15.10;98.10
52919;DHT22;38793;52.690;6.812;2022-07-29T04:02:15;15.10;98.20
52919;DHT22;38793;52.690;6.812;2022-07-29T04:04:41;15.10;98.20
52919;DHT22;38793;52.690;6.812;2022-07-29T04:07:06;15.00;98.10
52919;DHT22;38793;52.690;6.812;2022-07-29T04:09:32;15.10;98.20
52919;DHT22;38793;52.690;6.812;2022-07-29T04:11:57;15.00;98.20
52919;DHT22;38793;52.690;6.812;2022-07-29T04:14:23;15.10;98.30
52919;DHT22;38793;52.690;6.812;2022-07-29T04:16:48;15.10;98.20
52919;DHT22;38793;52.690;6.812;2022-07-29T04:19:14;15.10;98.40
52919;DHT22;38793;52.690;6.812;2022-07-29T04:21:40;15.10;98.20
52919;DHT22;38793;52.690;6.812;2022-07-29T04:24:07;15.10;98.20
52919;DHT22;38793;52.690;6.812;2022-07-29T04:26:33;15.10;98.10
52919;DHT22;38793;52.690;6.812;2022-07-29T04:28:59;15.10;98.30
52919;DHT22;38793;52.690;6.812;2022-07-29T04:31:25;15.10;98.30
52919;DHT22;38793;52.690;6.812;2022-07-29T04:33:51;15.10;98.40
52919;DHT22;38793;52.690;6.812;2022-07-29T04:36:16;15.20;98.40
52919;DHT22;38793;52.690;6.812;2022-07-29T04:38:43;15.10;98.30
52919;DHT22;38793;52.690;6.812;2022-07-29T04:41:08;15.20;98.30
52919;DHT22;38793;52.690;6.812;2022-07-29T04:43:35;15.20;98.60
52919;DHT22;38793;52.690;6.812;2022-07-29T04:46:01;15.20;98.50
52919;DHT22;38793;52.690;6.812;2022-07-29T04:48:26;15.20;98.50
52919;DHT22;38793;52.690;6.812;2022-07-29T04:50:52;15.20;98.70
52919;DHT22;38793;52.690;6.812;2022-07-29T04:53:18;15.20;98.40
52919;DHT22;38793;52.690;6.812;2022-07-29T04:55:44;15.20;98.50
52919;DHT22;38793;52.690;6.812;2022-07-29T04:58:10;15.20;98.50
52919;DHT22;38793;52.690;6.812;2022-07-29T05:00:36;15.30;98.50
52919;DHT22;38793;52.690;6.812;2022-07-29T05:03:02;15.30;98.60
52919;DHT22;38793;52.690;6.812;2022-07-29T05:05:27;15.30;98.60
52919;DHT22;38793;52.690;6.812;2022-07-29T05:07:53;15.30;98.50
52919;DHT22;38793;52.690;6.812;2022-07-29T05:10:18;15.30;98.50
52919;DHT22;38793;52.690;6.812;2022-07-29T05:12:44;15.40;98.40
52919;DHT22;38793;52.690;6.812;2022-07-29T05:15:10;15.50;98.50
52919;DHT22;38793;52.690;6.812;2022-07-29T05:17:35;15.50;98.50
52919;DHT22;38793;52.690;6.812;2022-07-29T05:20:01;15.60;98.50
52919;DHT22;38793;52.690;6.812;2022-07-29T05:22:27;15.70;98.20
52919;DHT22;38793;52.690;6.812;2022-07-29T05:24:52;15.70;98.10
52919;DHT22;38793;52.690;6.812;2022-07-29T05:27:18;15.80;98.20
52919;DHT22;38793;52.690;6.812;2022-07-29T05:29:43;15.80;97.90
52919;DHT22;38793;52.690;6.812;2022-07-29T05:32:09;15.90;98.00
52919;DHT22;38793;52.690;6.812;2022-07-29T05:34:35;15.90;97.70
52919;DHT22;38793;52.690;6.812;2022-07-29T05:37:01;15.90;97.60
52919;DHT22;38793;52.690;6.812;2022-07-29T05:39:26;15.90;97.60
52919;DHT22;38793;52.690;6.812;2022-07-29T05:41:52;15.90;97.50
52919;DHT22;38793;52.690;6.812;2022-07-29T05:44:17;15.90;97.60
52919;DHT22;38793;52.690;6.812;2022-07-29T05:46:43;15.90;97.50
52919;DHT22;38793;52.690;6.812;2022-07-29T05:49:08;15.90;97.80
52919;DHT22;38793;52.690;6.812;2022-07-29T05:51:34;15.90;97.60
52919;DHT22;38793;52.690;6.812;2022-07-29T05:54:00;16.00;97.80
52919;DHT22;38793;52.690;6.812;2022-07-29T05:56:25;16.00;97.80
52919;DHT22;38793;52.690;6.812;2022-07-29T05:58:51;16.10;97.60
52919;DHT22;38793;52.690;6.812;2022-07-29T06:01:17;16.20;97.40
52919;DHT22;38793;52.690;6.812;2022-07-29T06:03:42;16.30;97.50
52919;DHT22;38793;52.690;6.812;2022-07-29T06:06:08;16.30;97.70
52919;DHT22;38793;52.690;6.812;2022-07-29T06:08:34;16.40;97.50
52919;DHT22;38793;52.690;6.812;2022-07-29T06:11:00;16.60;97.50
52919;DHT22;38793;52.690;6.812;2022-07-29T06:13:26;16.60;97.30
52919;DHT22;38793;52.690;6.812;2022-07-29T06:15:51;16.70;97.20
52919;DHT22;38793;52.690;6.812;2022-07-29T06:18:17;16.80;97.10
52919;DHT22;38793;52.690;6.812;2022-07-29T06:20:43;16.90;96.90
52919;DHT22;38793;52.690;6.812;2022-07-29T06:23:09;17.00;97.00
52919;DHT22;38793;52.690;6.812;2022-07-29T06:25:35;17.10;96.60
52919;DHT22;38793;52.690;6.812;2022-07-29T06:28:02;17.10;96.70
52919;DHT22;38793;52.690;6.812;2022-07-29T06:30:27;17.10;96.60
52919;DHT22;38793;52.690;6.812;2022-07-29T06:32:54;17.20;96.60
52919;DHT22;38793;52.690;6.812;2022-07-29T06:35:19;17.30;96.20
52919;DHT22;38793;52.690;6.812;2022-07-29T06:37:45;17.30;96.20
52919;DHT22;38793;52.690;6.812;2022-07-29T06:40:10;17.30;96.50
52919;DHT22;38793;52.690;6.812;2022-07-29T06:42:56;17.30;96.00
52919;DHT22;38793;52.690;6.812;2022-07-29T06:45:21;17.40;95.80
52919;DHT22;38793;52.690;6.812;2022-07-29T06:47:47;17.30;96.40
52919;DHT22;38793;52.690;6.812;2022-07-29T06:50:13;17.40;96.20
52919;DHT22;38793;52.690;6.812;2022-07-29T06:52:39;17.40;96.10
52919;DHT22;38793;52.690;6.812;2022-07-29T06:55:06;17.40;95.90
52919;DHT22;38793;52.690;6.812;2022-07-29T06:57:31;17.40;95.60
52919;DHT22;38793;52.690;6.812;2022-07-29T06:59:57;17.40;95.70
52919;DHT22;38793;52.690;6.812;2022-07-29T07:02:22;17.40;95.70
52919;DHT22;38793;52.690;6.812;2022-07-29T07:04:48;17.40;96.10
52919;DHT22;38793;52.690;6.812;2022-07-29T07:07:13;17.50;95.80
52919;DHT22;38793;52.690;6.812;2022-07-29T07:09:39;17.50;96.10
52919;DHT22;38793;52.690;6.812;2022-07-29T07:12:04;17.60;95.90
52919;DHT22;38793;52.690;6.812;2022-07-29T07:14:30;17.70;95.60
52919;DHT22;38793;52.690;6.812;2022-07-29T07:16:55;17.80;95.80
52919;DHT22;38793;52.690;6.812;2022-07-29T07:19:21;17.80;95.50
52919;DHT22;38793;52.690;6.812;2022-07-29T07:21:46;17.80;95.10
52919;DHT22;38793;52.690;6.812;2022-07-29T07:24:12;17.90;95.40
52919;DHT22;38793;52.690;6.812;2022-07-29T07:26:37;17.90;95.50
52919;DHT22;38793;52.690;6.812;2022-07-29T07:29:04;17.90;95.70
52919;DHT22;38793;52.690;6.812;2022-07-29T07:31:30;18.00;95.70
52919;DHT22;38793;52.690;6.812;2022-07-29T07:33:56;18.10;95.20
52919;DHT22;38793;52.690;6.812;2022-07-29T07:36:22;18.10;95.30
52919;DHT22;38793;52.690;6.812;2022-07-29T07:38:48;18.20;94.90
52919;DHT22;38793;52.690;6.812;2022-07-29T07:41:13;18.30;94.70
52919;DHT22;38793;52.690;6.812;2022-07-29T07:43:39;18.40;94.90
52919;DHT22;38793;52.690;6.812;2022-07-29T07:46:04;18.40;94.50
52919;DHT22;38793;52.690;6.812;2022-07-29T07:48:30;18.60;95.10
52919;DHT22;38793;52.690;6.812;2022-07-29T07:50:55;18.50;94.40
52919;DHT22;38793;52.690;6.812;2022-07-29T07:53:21;18.50;94.20
52919;DHT22;38793;52.690;6.812;2022-07-29T07:55:47;18.50;94.60
52919;DHT22;38793;52.690;6.812;2022-07-29T07:58:12;18.50;94.50
52919;DHT22;38793;52.690;6.812;2022-07-29T08:00:38;18.50;94.60
52919;DHT22;38793;52.690;6.812;2022-07-29T08:03:03;18.50;94.60
52919;DHT22;38793;52.690;6.812;2022-07-29T08:05:29;18.60;94.80
52919;DHT22;38793;52.690;6.812;2022-07-29T08:07:54;18.50;94.60
52919;DHT22;38793;52.690;6.812;2022-07-29T08:10:20;18.60;94.60
52919;DHT22;38793;52.690;6.812;2022-07-29T08:13:07;18.60;94.60
52919;DHT22;38793;52.690;6.812;2022-07-29T08:15:33;18.60;94.70
52919;DHT22;38793;52.690;6.812;2022-07-29T08:17:59;18.50;94.70
52919;DHT22;38793;52.690;6.812;2022-07-29T08:20:24;18.60;94.70
52919;DHT22;38793;52.690;6.812;2022-07-29T08:22:50;18.50;95.10
52919;DHT22;38793;52.690;6.812;2022-07-29T08:25:16;18.50;94.60
52919;DHT22;38793;52.690;6.812;2022-07-29T08:27:46;18.60;94.50
52919;DHT22;38793;52.690;6.812;2022-07-29T08:30:11;18.50;94.90
52919;DHT22;38793;52.690;6.812;2022-07-29T08:32:37;18.60;95.00
52919;DHT22;38793;52.690;6.812;2022-07-29T08:35:02;18.60;95.00
52919;DHT22;38793;52.690;6.812;2022-07-29T08:37:28;18.60;95.00
52919;DHT22;38793;52.690;6.812;2022-07-29T08:39:53;18.60;95.00
52919;DHT22;38793;52.690;6.812;2022-07-29T08:42:19;18.70;95.30
52919;DHT22;38793;52.690;6.812;2022-07-29T08:44:44;18.70;95.30
52919;DHT22;38793;52.690;6.812;2022-07-29T08:47:10;18.70;95.50
52919;DHT22;38793;52.690;6.812;2022-07-29T08:49:39;18.80;95.20
52919;DHT22;38793;52.690;6.812;2022-07-29T08:52:04;18.80;95.20
52919;DHT22;38793;52.690;6.812;2022-07-29T08:54:30;18.80;95.40
52919;DHT22;38793;52.690;6.812;2022-07-29T08:56:56;18.80;95.60
52919;DHT22;38793;52.690;6.812;2022-07-29T08:59:22;18.80;95.30
52919;DHT22;38793;52.690;6.812;2022-07-29T09:01:50;18.90;95.30
52919;DHT22;38793;52.690;6.812;2022-07-29T09:04:17;18.90;95.10
52919;DHT22;38793;52.690;6.812;2022-07-29T09:06:45;18.90;95.20
52919;DHT22;38793;52.690;6.812;2022-07-29T09:09:12;18.90;95.30
52919;DHT22;38793;52.690;6.812;2022-07-29T09:11:39;18.90;95.30
52919;DHT22;38793;52.690;6.812;2022-07-29T09:14:04;18.90;95.00
52919;DHT22;38793;52.690;6.812;2022-07-29T09:16:47;18.90;95.30
52919;DHT22;38793;52.690;6.812;2022-07-29T09:19:46;18.90;95.00
52919;DHT22;38793;52.690;6.812;2022-07-29T09:22:05;18.90;95.10
52919;DHT22;38793;52.690;6.812;2022-07-29T09:26:59;18.90;95.20
52919;DHT22;38793;52.690;6.812;2022-07-29T09:29:25;19.00;95.20
52919;DHT22;38793;52.690;6.812;2022-07-29T09:31:52;18.90;95.50
52919;DHT22;38793;52.690;6.812;2022-07-29T09:34:25;19.00;95.00
52919;DHT22;38793;52.690;6.812;2022-07-29T09:36:51;18.90;95.10
52919;DHT22;38793;52.690;6.812;2022-07-29T09:39:26;19.00;94.70
52919;DHT22;38793;52.690;6.812;2022-07-29T09:41:52;19.00;95.20
52919;DHT22;38793;52.690;6.812;2022-07-29T09:44:18;19.00;95.20
52919;DHT22;38793;52.690;6.812;2022-07-29T09:49:22;19.10;95.30
52919;DHT22;38793;52.690;6.812;2022-07-29T09:51:58;19.10;95.30
52919;DHT22;38793;52.690;6.812;2022-07-29T09:54:24;19.20;95.50
52919;DHT22;38793;52.690;6.812;2022-07-29T09:56:50;19.20;95.50
52919;DHT22;38793;52.690;6.812;2022-07-29T09:59:16;19.20;95.70
52919;DHT22;38793;52.690;6.812;2022-07-29T10:01:42;19.30;96.00
52919;DHT22;38793;52.690;6.812;2022-07-29T10:04:07;19.20;95.70
52919;DHT22;38793;52.690;6.812;2022-07-29T10:06:33;19.20;95.80
52919;DHT22;38793;52.690;6.812;2022-07-29T10:09:10;19.20;95.90
52919;DHT22;38793;52.690;6.812;2022-07-29T10:11:36;19.20;95.80
52919;DHT22;38793;52.690;6.812;2022-07-29T10:14:02;19.20;95.80
52919;DHT22;38793;52.690;6.812;2022-07-29T10:16:28;19.20;95.70
52919;DHT22;38793;52.690;6.812;2022-07-29T10:19:00;19.20;96.00
52919;DHT22;38793;52.690;6.812;2022-07-29T10:21:26;19.20;96.00
52919;DHT22;38793;52.690;6.812;2022-07-29T10:23:55;19.20;96.10
52919;DHT22;38793;52.690;6.812;2022-07-29T10:26:22;19.30;96.30
52919;DHT22;38793;52.690;6.812;2022-07-29T10:28:48;19.30;96.10
52919;DHT22;38793;52.690;6.812;2022-07-29T10:31:15;19.30;96.50
52919;DHT22;38793;52.690;6.812;2022-07-29T10:36:56;19.40;96.40
52919;DHT22;38793;52.690;6.812;2022-07-29T10:42:16;19.50;96.70
52919;DHT22;38793;52.690;6.812;2022-07-29T10:44:42;19.50;96.70
52919;DHT22;38793;52.690;6.812;2022-07-29T10:47:18;19.50;96.80
52919;DHT22;38793;52.690;6.812;2022-07-29T10:49:54;19.50;97.00
52919;DHT22;38793;52.690;6.812;2022-07-29T10:52:20;19.60;96.70
52919;DHT22;38793;52.690;6.812;2022-07-29T10:54:48;19.60;96.20
52919;DHT22;38793;52.690;6.812;2022-07-29T10:57:19;19.70;96.50
52919;DHT22;38793;52.690;6.812;2022-07-29T10:59:46;19.70;96.50
52919;DHT22;38793;52.690;6.812;2022-07-29T11:07:22;19.80;95.90
52919;DHT22;38793;52.690;6.812;2022-07-29T11:15:06;19.90;96.10
52919;DHT22;38793;52.690;6.812;2022-07-29T11:23:00;19.90;95.90
52919;DHT22;38793;52.690;6.812;2022-07-29T11:25:25;20.00;95.90
52919;DHT22;38793;52.690;6.812;2022-07-29T11:27:52;20.00;95.90
52919;DHT22;38793;52.690;6.812;2022-07-29T11:30:18;20.00;96.00
52919;DHT22;38793;52.690;6.812;2022-07-29T11:32:43;20.00;96.10
52919;DHT22;38793;52.690;6.812;2022-07-29T11:35:22;20.00;96.00
52919;DHT22;38793;52.690;6.812;2022-07-29T11:40:32;20.10;96.20
52919;DHT22;38793;52.690;6.812;2022-07-29T11:42:58;20.10;96.70
52919;DHT22;38793;52.690;6.812;2022-07-29T11:45:23;20.20;96.60
52919;DHT22;38793;52.690;6.812;2022-07-29T11:47:54;20.20;96.50
52919;DHT22;38793;52.690;6.812;2022-07-29T11:50:28;20.20;96.50
52919;DHT22;38793;52.690;6.812;2022-07-29T11:52:54;20.20;96.50
52919;DHT22;38793;52.690;6.812;2022-07-29T11:55:20;20.30;96.40
52919;DHT22;38793;52.690;6.812;2022-07-29T11:57:51;20.30;96.20
52919;DHT22;38793;52.690;6.812;2022-07-29T12:03:22;20.30;95.80
52919;DHT22;38793;52.690;6.812;2022-07-29T12:05:48;20.40;96.20
52919;DHT22;38793;52.690;6.812;2022-07-29T12:08:15;20.40;96.00
52919;DHT22;38793;52.690;6.812;2022-07-29T12:10:42;20.50;95.60
52919;DHT22;38793;52.690;6.812;2022-07-29T12:13:08;20.60;95.30
52919;DHT22;38793;52.690;6.812;2022-07-29T12:15:34;20.60;95.70
52919;DHT22;38793;52.690;6.812;2022-07-29T12:18:08;20.60;96.00
52919;DHT22;38793;52.690;6.812;2022-07-29T12:20:34;20.70;95.60
52919;DHT22;38793;52.690;6.812;2022-07-29T12:23:03;20.70;95.50
52919;DHT22;38793;52.690;6.812;2022-07-29T12:25:32;20.80;95.40
52919;DHT22;38793;52.690;6.812;2022-07-29T12:28:02;20.90;95.60
52919;DHT22;38793;52.690;6.812;2022-07-29T12:30:47;21.00;94.50
52919;DHT22;38793;52.690;6.812;2022-07-29T12:33:26;21.00;94.50
52919;DHT22;38793;52.690;6.812;2022-07-29T12:35:59;21.20;94.00
52919;DHT22;38793;52.690;6.812;2022-07-29T12:38:25;21.20;94.10
52919;DHT22;38793;52.690;6.812;2022-07-29T12:43:54;21.50;94.30
52919;DHT22;38793;52.690;6.812;2022-07-29T12:46:20;21.60;94.00
52919;DHT22;38793;52.690;6.812;2022-07-29T12:48:49;21.60;93.50
52919;DHT22;38793;52.690;6.812;2022-07-29T12:51:15;21.60;93.40
52919;DHT22;38793;52.690;6.812;2022-07-29T12:54:00;21.60;93.10
52919;DHT22;38793;52.690;6.812;2022-07-29T12:56:26;21.70;93.10
52919;DHT22;38793;52.690;6.812;2022-07-29T12:58:51;21.70;93.40
52919;DHT22;38793;52.690;6.812;2022-07-29T13:01:17;21.80;92.70
52919;DHT22;38793;52.690;6.812;2022-07-29T13:11:28;21.90;93.00
52919;DHT22;38793;52.690;6.812;2022-07-29T13:13:54;22.00;92.50
52919;DHT22;38793;52.690;6.812;2022-07-29T13:16:19;22.10;93.00
52919;DHT22;38793;52.690;6.812;2022-07-29T13:18:45;22.20;92.00
52919;DHT22;38793;52.690;6.812;2022-07-29T13:21:12;22.30;93.00
52919;DHT22;38793;52.690;6.812;2022-07-29T13:23:38;22.40;92.80
52919;DHT22;38793;52.690;6.812;2022-07-29T13:26:07;22.60;93.10
52919;DHT22;38793;52.690;6.812;2022-07-29T13:28:33;22.70;92.20
52919;DHT22;38793;52.690;6.812;2022-07-29T13:30:59;22.90;92.10
52919;DHT22;38793;52.690;6.812;2022-07-29T13:33:24;23.10;91.30
52919;DHT22;38793;52.690;6.812;2022-07-29T13:35:50;23.10;91.30
52919;DHT22;38793;52.690;6.812;2022-07-29T13:38:15;23.30;92.40
52919;DHT22;38793;52.690;6.812;2022-07-29T13:40:41;23.40;91.80
52919;DHT22;38793;52.690;6.812;2022-07-29T13:43:08;23.50;91.60
52919;DHT22;38793;52.690;6.812;2022-07-29T13:45:34;23.60;91.50
52919;DHT22;38793;52.690;6.812;2022-07-29T13:47:59;23.70;91.50
52919;DHT22;38793;52.690;6.812;2022-07-29T13:50:25;23.80;90.60
52919;DHT22;38793;52.690;6.812;2022-07-29T13:52:50;23.90;90.50
52919;DHT22;38793;52.690;6.812;2022-07-29T13:55:16;24.00;90.60
52919;DHT22;38793;52.690;6.812;2022-07-29T13:57:41;24.00;90.30
52919;DHT22;38793;52.690;6.812;2022-07-29T14:00:07;24.00;90.00
52919;DHT22;38793;52.690;6.812;2022-07-29T14:02:33;24.00;89.80
52919;DHT22;38793;52.690;6.812;2022-07-29T14:04:58;24.00;90.20
52919;DHT22;38793;52.690;6.812;2022-07-29T14:07:24;24.10;90.00
52919;DHT22;38793;52.690;6.812;2022-07-29T14:09:50;24.10;90.00
52919;DHT22;38793;52.690;6.812;2022-07-29T14:12:15;24.00;90.00
52919;DHT22;38793;52.690;6.812;2022-07-29T14:14:40;24.00;89.90
52919;DHT22;38793;52.690;6.812;2022-07-29T14:17:06;24.00;88.90
52919;DHT22;38793;52.690;6.812;2022-07-29T14:19:32;23.90;89.30
52919;DHT22;38793;52.690;6.812;2022-07-29T14:22:01;23.90;88.70
52919;DHT22;38793;52.690;6.812;2022-07-29T14:24:27;23.80;88.80
52919;DHT22;38793;52.690;6.812;2022-07-29T14:26:52;23.80;88.80
52919;DHT22;38793;52.690;6.812;2022-07-29T14:29:18;23.80;89.00
52919;DHT22;38793;52.690;6.812;2022-07-29T14:31:43;23.80;88.70
52919;DHT22;38793;52.690;6.812;2022-07-29T14:34:09;23.80;89.00
52919;DHT22;38793;52.690;6.812;2022-07-29T14:36:34;23.80;89.30
52919;DHT22;38793;52.690;6.812;2022-07-29T14:39:00;23.80;89.50
52919;DHT22;38793;52.690;6.812;2022-07-29T14:41:25;23.90;89.80
52919;DHT22;38793;52.690;6.812;2022-07-29T14:43:53;24.10;89.20
52919;DHT22;38793;52.690;6.812;2022-07-29T14:46:19;24.20;89.20
52919;DHT22;38793;52.690;6.812;2022-07-29T14:48:45;24.20;86.80
52919;DHT22;38793;52.690;6.812;2022-07-29T14:51:10;24.20;88.70
52919;DHT22;38793;52.690;6.812;2022-07-29T14:53:35;24.10;88.00
52919;DHT22;38793;52.690;6.812;2022-07-29T14:56:01;24.10;88.40
52919;DHT22;38793;52.690;6.812;2022-07-29T14:58:27;24.10;87.50
52919;DHT22;38793;52.690;6.812;2022-07-29T15:00:52;24.10;86.00
52919;DHT22;38793;52.690;6.812;2022-07-29T15:03:20;24.00;86.60
52919;DHT22;38793;52.690;6.812;2022-07-29T15:05:45;24.00;88.00
52919;DHT22;38793;52.690;6.812;2022-07-29T15:08:11;24.00;87.90
52919;DHT22;38793;52.690;6.812;2022-07-29T15:10:36;24.00;88.40
52919;DHT22;38793;52.690;6.812;2022-07-29T15:13:02;24.00;88.50
52919;DHT22;38793;52.690;6.812;2022-07-29T15:15:27;24.00;87.80
52919;DHT22;38793;52.690;6.812;2022-07-29T15:17:53;24.00;87.40
52919;DHT22;38793;52.690;6.812;2022-07-29T15:20:18;24.00;89.20
52919;DHT22;38793;52.690;6.812;2022-07-29T15:22:44;24.00;88.30
52919;DHT22;38793;52.690;6.812;2022-07-29T15:25:10;24.10;88.90
52919;DHT22;38793;52.690;6.812;2022-07-29T15:27:36;24.10;87.90
52919;DHT22;38793;52.690;6.812;2022-07-29T15:30:01;24.20;87.50
52919;DHT22;38793;52.690;6.812;2022-07-29T15:32:27;24.20;87.50
52919;DHT22;38793;52.690;6.812;2022-07-29T15:34:52;24.20;87.40
52919;DHT22;38793;52.690;6.812;2022-07-29T15:37:17;24.20;87.00
52919;DHT22;38793;52.690;6.812;2022-07-29T15:39:43;24.10;88.00
52919;DHT22;38793;52.690;6.812;2022-07-29T15:42:08;24.10;88.10
52919;DHT22;38793;52.690;6.812;2022-07-29T15:44:34;24.00;87.80
52919;DHT22;38793;52.690;6.812;2022-07-29T15:46:59;24.00;88.40
52919;DHT22;38793;52.690;6.812;2022-07-29T15:49:28;24.00;87.80
52919;DHT22;38793;52.690;6.812;2022-07-29T15:51:57;24.00;88.10
52919;DHT22;38793;52.690;6.812;2022-07-29T15:54:23;24.10;88.80
52919;DHT22;38793;52.690;6.812;2022-07-29T15:56:49;24.00;86.10
52919;DHT22;38793;52.690;6.812;2022-07-29T15:59:14;24.10;87.50
52919;DHT22;38793;52.690;6.812;2022-07-29T16:01:40;24.00;87.40
52919;DHT22;38793;52.690;6.812;2022-07-29T16:04:06;24.00;86.60
52919;DHT22;38793;52.690;6.812;2022-07-29T16:06:31;24.00;86.40
52919;DHT22;38793;52.690;6.812;2022-07-29T16:08:57;23.90;86.10
52919;DHT22;38793;52.690;6.812;2022-07-29T16:11:23;23.80;86.10
52919;DHT22;38793;52.690;6.812;2022-07-29T16:13:48;23.80;86.70
52919;DHT22;38793;52.690;6.812;2022-07-29T16:16:14;23.90;86.80
52919;DHT22;38793;52.690;6.812;2022-07-29T16:18:40;23.80;86.20
52919;DHT22;38793;52.690;6.812;2022-07-29T16:21:06;23.80;85.90